createdAt,value
2023-05-10T00:01:57.518Z,19.54
2023-05-10T00:04:28.332Z,19.54
2023-05-10T00:06:56.414Z,19.55
2023-05-10T00:09:24.268Z,19.53
2023-05-10T00:11:52.069Z,19.54
2023-05-10T00:14:19.869Z,19.54
2023-05-10T00:16:47.410Z,19.52
2023-05-10T00:19:14.869Z,19.51
2023-05-10T00:21:42.374Z,19.52
2023-05-10T00:24:10.400Z,19.48
2023-05-10T00:26:38.317Z,19.44
2023-05-10T00:29:05.857Z,19.43
2023-05-10T00:31:33.768Z,19.37
2023-05-10T00:34:01.332Z,19.36
2023-05-10T00:36:29.164Z,19.35
2023-05-10T00:38:56.601Z,19.32
2023-05-10T00:41:24.106Z,19.28
2023-05-10T00:43:52.022Z,19.27
2023-05-10T00:46:19.479Z,19.22
2023-05-10T00:48:46.980Z,19.10
2023-05-10T00:51:14.788Z,19.03
2023-05-10T00:53:42.292Z,18.91
2023-05-10T00:56:10.228Z,18.91
2023-05-10T00:58:38.075Z,18.83
2023-05-10T01:01:06.375Z,18.71
2023-05-10T01:03:34.555Z,18.67
2023-05-10T01:06:02.513Z,18.59
2023-05-10T01:08:30.472Z,18.44
2023-05-10T01:10:58.166Z,18.42
2023-05-10T01:13:56.047Z,18.36
2023-05-10T01:16:23.986Z,18.35
2023-05-10T01:18:51.912Z,18.32
2023-05-10T01:21:45.199Z,18.29
2023-05-10T01:24:20.437Z,18.30
2023-05-10T01:27:02.366Z,18.24
2023-05-10T01:29:43.230Z,18.26
2023-05-10T01:32:22.048Z,18.18
2023-05-10T01:34:59.344Z,18.11
2023-05-10T01:38:06.348Z,18.15
2023-05-10T01:40:43.684Z,18.16
2023-05-10T01:43:15.857Z,18.12
2023-05-10T01:46:01.975Z,18.09
2023-05-10T01:48:29.521Z,18.08
2023-05-10T01:50:57.056Z,18.06
2023-05-10T01:53:24.962Z,18.07
2023-05-10T01:55:53.736Z,18.05
2023-05-10T01:58:30.362Z,18.02
2023-05-10T02:00:57.452Z,17.97
2023-05-10T02:03:24.978Z,17.95
2023-05-10T02:05:51.915Z,17.93
2023-05-10T02:08:19.745Z,17.87
2023-05-10T02:10:47.939Z,17.89
2023-05-10T02:13:15.881Z,17.86
2023-05-10T02:15:43.596Z,17.82
2023-05-10T02:18:11.528Z,17.75
2023-05-10T02:20:39.064Z,17.73
2023-05-10T02:23:07.006Z,17.69
2023-05-10T02:25:34.641Z,17.61
2023-05-10T02:28:03.110Z,17.59
2023-05-10T02:30:30.594Z,17.48
2023-05-10T02:32:58.711Z,17.43
2023-05-10T02:35:26.166Z,17.35
2023-05-10T02:37:53.384Z,17.34
2023-05-10T02:40:21.740Z,17.25
2023-05-10T02:42:49.962Z,17.17
2023-05-10T02:45:22.162Z,17.10
2023-05-10T02:47:49.736Z,17.06
2023-05-10T02:50:22.174Z,17.07
2023-05-10T02:52:51.747Z,17.03
2023-05-10T02:55:19.524Z,16.98
2023-05-10T02:57:55.374Z,16.96
2023-05-10T03:00:23.136Z,16.91
2023-05-10T03:02:50.633Z,16.87
2023-05-10T03:05:18.249Z,16.82
2023-05-10T03:07:45.762Z,16.74
2023-05-10T03:10:12.883Z,16.77
2023-05-10T03:12:49.205Z,16.78
2023-05-10T03:15:28.363Z,16.74
2023-05-10T03:18:14.692Z,16.68
2023-05-10T03:21:13.497Z,16.64
2023-05-10T03:23:53.176Z,16.63
2023-05-10T03:26:25.490Z,16.57
2023-05-10T03:28:53.146Z,16.60
2023-05-10T03:31:21.368Z,16.56
2023-05-10T03:33:51.670Z,16.51
2023-05-10T03:36:23.037Z,16.50
2023-05-10T03:38:50.404Z,16.43
2023-05-10T03:41:17.756Z,16.41
2023-05-10T03:43:45.484Z,16.42
2023-05-10T03:46:13.629Z,16.35
2023-05-10T03:48:41.551Z,16.35
2023-05-10T03:51:09.499Z,16.38
2023-05-10T03:53:37.352Z,16.39
2023-05-10T03:56:06.455Z,16.37
2023-05-10T03:58:34.741Z,16.38
2023-05-10T04:01:02.722Z,16.35
2023-05-10T04:03:30.712Z,16.31
2023-05-10T04:06:24.274Z,16.32
2023-05-10T04:08:52.162Z,16.27
2023-05-10T04:11:20.043Z,16.28
2023-05-10T04:13:47.872Z,16.23
2023-05-10T04:16:15.610Z,16.16
2023-05-10T04:18:43.205Z,16.16
2023-05-10T04:21:15.109Z,16.17
2023-05-10T04:23:43.098Z,16.14
2023-05-10T04:26:11.107Z,16.11
2023-05-10T04:28:39.047Z,16.07
2023-05-10T04:31:07.122Z,16.08
2023-05-10T04:33:34.994Z,16.10
2023-05-10T04:36:02.725Z,16.04
2023-05-10T04:38:30.320Z,16.04
2023-05-10T04:41:11.042Z,16.07
2023-05-10T04:43:38.647Z,16.09
2023-05-10T04:46:06.116Z,16.01
2023-05-10T04:48:33.814Z,16.02
2023-05-10T04:51:01.415Z,15.97
2023-05-10T04:53:28.869Z,16.04
2023-05-10T04:55:56.905Z,16.16
2023-05-10T04:58:24.394Z,16.17
2023-05-10T05:00:52.210Z,16.13
2023-05-10T05:03:20.751Z,16.09
2023-05-10T05:05:48.679Z,16.09
2023-05-10T05:08:16.748Z,16.08
2023-05-10T05:10:44.679Z,16.06
2023-05-10T05:13:13.832Z,16.09
2023-05-10T05:15:41.580Z,16.11
2023-05-10T05:18:09.015Z,16.09
2023-05-10T05:20:36.849Z,16.11
2023-05-10T05:23:05.083Z,16.09
2023-05-10T05:25:32.968Z,16.13
2023-05-10T05:28:00.909Z,16.12
2023-05-10T05:30:28.657Z,16.09
2023-05-10T05:32:56.719Z,16.03
2023-05-10T05:35:24.993Z,16.10
2023-05-10T05:37:52.460Z,16.11
2023-05-10T05:40:21.309Z,16.15
2023-05-10T05:42:49.276Z,16.09
2023-05-10T05:45:17.419Z,16.00
2023-05-10T05:47:46.217Z,15.96
2023-05-10T05:50:17.309Z,15.97
2023-05-10T05:52:45.195Z,15.95
2023-05-10T05:55:12.882Z,15.89
2023-05-10T05:57:40.356Z,15.89
2023-05-10T06:00:11.310Z,15.89
2023-05-10T06:02:38.932Z,15.87
2023-05-10T06:05:09.928Z,15.84
2023-05-10T06:07:40.830Z,15.80
2023-05-10T06:10:10.043Z,15.76
2023-05-10T06:12:37.157Z,15.73
2023-05-10T06:15:06.682Z,15.74
2023-05-10T06:17:34.241Z,15.68
2023-05-10T06:20:02.397Z,15.73
2023-05-10T06:22:30.423Z,15.72
2023-05-10T06:24:58.294Z,15.67
2023-05-10T06:27:26.329Z,15.69
2023-05-10T06:30:02.061Z,15.83
2023-05-10T06:32:33.575Z,15.86
2023-05-10T06:35:01.099Z,15.85
2023-05-10T06:37:28.953Z,15.85
2023-05-10T06:39:56.884Z,15.93
2023-05-10T06:42:27.566Z,15.94
2023-05-10T06:44:55.422Z,15.88
2023-05-10T06:47:23.105Z,15.87
2023-05-10T06:49:50.947Z,15.89
2023-05-10T06:52:18.960Z,15.91
2023-05-10T06:54:46.505Z,15.93
2023-05-10T06:57:27.448Z,15.94
2023-05-10T06:59:57.786Z,15.95
2023-05-10T07:02:25.226Z,15.87
2023-05-10T07:04:53.064Z,15.89
2023-05-10T07:07:20.875Z,15.90
2023-05-10T07:09:48.326Z,15.81
2023-05-10T07:12:16.172Z,15.70
2023-05-10T07:14:44.101Z,15.73
2023-05-10T07:17:11.791Z,15.78
2023-05-10T07:19:39.699Z,15.64
2023-05-10T07:22:07.546Z,15.55
2023-05-10T07:24:35.071Z,15.57
2023-05-10T07:27:06.004Z,15.54
2023-05-10T07:29:33.884Z,15.57
2023-05-10T07:32:01.828Z,15.58
2023-05-10T07:34:31.288Z,15.64
2023-05-10T07:36:59.925Z,15.49
2023-05-10T07:39:28.979Z,15.50
2023-05-10T07:42:16.878Z,15.47
2023-05-10T07:44:44.770Z,15.45
2023-05-10T07:47:12.746Z,15.45
2023-05-10T07:49:40.353Z,15.43
2023-05-10T07:52:08.037Z,15.50
2023-05-10T07:54:35.513Z,15.52
2023-05-10T07:57:03.006Z,15.53
2023-05-10T07:59:30.537Z,15.51
2023-05-10T08:01:58.446Z,15.50
2023-05-10T08:04:25.993Z,15.48
2023-05-10T08:06:53.963Z,15.46
2023-05-10T08:09:25.168Z,15.47
2023-05-10T08:11:52.903Z,15.40
2023-05-10T08:14:20.750Z,15.46
2023-05-10T08:16:49.308Z,15.58
2023-05-10T08:19:20.080Z,15.65
2023-05-10T08:21:48.045Z,15.69
2023-05-10T08:24:15.551Z,15.62
2023-05-10T08:26:43.715Z,15.64
2023-05-10T08:29:11.369Z,15.71
2023-05-10T08:31:39.321Z,15.72
2023-05-10T08:34:07.054Z,15.69
2023-05-10T08:36:34.576Z,15.65
2023-05-10T08:39:02.428Z,15.70
2023-05-10T08:41:29.456Z,15.67
2023-05-10T08:43:57.619Z,15.67
2023-05-10T08:46:27.128Z,15.65
2023-05-10T08:48:54.724Z,15.64
2023-05-10T08:51:47.746Z,15.60
2023-05-10T08:54:15.595Z,15.59
2023-05-10T08:56:43.545Z,15.54
2023-05-10T08:59:12.464Z,15.55
2023-05-10T09:04:09.611Z,15.60
2023-05-10T09:06:37.781Z,15.66
2023-05-10T09:09:05.574Z,15.66
2023-05-10T09:11:33.468Z,15.74
2023-05-10T09:14:01.514Z,15.80
2023-05-10T09:16:28.585Z,15.78
2023-05-10T09:18:56.518Z,15.73
2023-05-10T09:21:24.384Z,15.65
2023-05-10T09:23:52.044Z,15.64
2023-05-10T09:26:18.786Z,15.69
2023-05-10T09:28:53.367Z,15.68
2023-05-10T09:31:21.244Z,15.77
2023-05-10T09:33:49.276Z,15.80
2023-05-10T09:36:17.026Z,15.87
2023-05-10T09:38:52.758Z,15.93
2023-05-10T09:41:24.125Z,15.88
2023-05-10T09:43:52.430Z,15.88
2023-05-10T09:46:19.856Z,15.86
2023-05-10T09:48:48.105Z,15.98
2023-05-10T09:51:28.017Z,16.08
2023-05-10T09:54:15.916Z,16.10
2023-05-10T09:56:44.353Z,16.16
2023-05-10T09:59:13.489Z,16.27
2023-05-10T10:01:41.607Z,16.28
2023-05-10T10:04:09.590Z,16.39
2023-05-10T10:06:38.787Z,16.49
2023-05-10T10:09:07.518Z,16.48
2023-05-10T10:11:39.515Z,16.54
2023-05-10T10:14:07.676Z,16.54
2023-05-10T10:16:35.637Z,16.59
2023-05-10T10:19:02.974Z,16.63
2023-05-10T10:21:31.960Z,16.63
2023-05-10T10:23:59.349Z,16.71
2023-05-10T10:26:26.443Z,16.76
2023-05-10T10:29:47.477Z,16.69
2023-05-10T10:32:39.842Z,16.68
2023-05-10T10:35:08.194Z,16.67
2023-05-10T10:37:49.210Z,16.75
2023-05-10T10:40:26.209Z,16.86
2023-05-10T10:42:54.622Z,16.87
2023-05-10T10:45:24.144Z,16.85
2023-05-10T10:48:15.601Z,16.77
2023-05-10T10:50:47.787Z,16.65
2023-05-10T10:53:15.479Z,16.57
2023-05-10T10:55:49.149Z,16.56
2023-05-10T10:58:52.212Z,16.53
2023-05-10T11:01:20.756Z,16.51
2023-05-10T11:04:00.201Z,16.46
2023-05-10T11:06:35.830Z,16.54
2023-05-10T11:09:10.487Z,16.58
2023-05-10T11:11:38.861Z,16.57
2023-05-10T11:14:09.892Z,16.52
2023-05-10T11:16:44.045Z,16.58
2023-05-10T11:19:18.062Z,16.70
2023-05-10T11:21:52.011Z,16.72
2023-05-10T11:24:22.127Z,16.75
2023-05-10T11:26:51.605Z,16.73
2023-05-10T11:29:18.725Z,16.85
2023-05-10T11:31:47.626Z,16.81
2023-05-10T11:34:32.344Z,16.91
2023-05-10T11:36:59.852Z,16.93
2023-05-10T11:39:32.292Z,17.04
2023-05-10T11:41:59.893Z,17.02
2023-05-10T11:44:36.567Z,17.06
2023-05-10T11:47:05.014Z,17.06
2023-05-10T11:49:32.910Z,17.05
2023-05-10T11:52:07.957Z,17.05
2023-05-10T11:54:38.434Z,17.03
2023-05-10T11:57:06.134Z,17.10
2023-05-10T11:59:34.020Z,17.20
2023-05-10T12:02:01.786Z,17.15
2023-05-10T12:04:32.298Z,17.12
2023-05-10T12:06:59.893Z,17.17
2023-05-10T12:09:42.687Z,17.13
2023-05-10T12:12:11.460Z,17.17
2023-05-10T12:14:38.989Z,17.23
2023-05-10T12:17:07.002Z,17.28
2023-05-10T12:19:40.624Z,17.28
2023-05-10T12:22:08.175Z,17.23
2023-05-10T12:24:37.284Z,17.27
2023-05-10T12:27:09.351Z,17.25
2023-05-10T12:29:36.633Z,17.31
2023-05-10T12:32:04.897Z,17.37
2023-05-10T12:34:37.225Z,17.32
2023-05-10T12:37:08.335Z,17.33
2023-05-10T12:39:43.768Z,17.34
2023-05-10T12:42:12.088Z,17.43
2023-05-10T12:44:43.958Z,17.33
2023-05-10T12:47:11.896Z,17.36
2023-05-10T12:49:40.174Z,17.34
2023-05-10T12:52:07.806Z,17.33
2023-05-10T12:54:35.862Z,17.32
2023-05-10T12:57:03.770Z,17.32
2023-05-10T12:59:31.644Z,17.32
2023-05-10T13:01:59.295Z,17.28
2023-05-10T13:04:26.839Z,17.25
2023-05-10T13:06:56.528Z,17.24
2023-05-10T13:09:24.505Z,17.25
2023-05-10T13:11:55.203Z,17.24
2023-05-10T13:14:22.970Z,17.27
2023-05-10T13:16:50.924Z,17.31
2023-05-10T13:19:18.338Z,17.30
2023-05-10T13:21:46.062Z,17.24
2023-05-10T13:24:15.205Z,17.27
2023-05-10T13:26:42.840Z,17.29
2023-05-10T13:29:10.475Z,17.27
2023-05-10T13:31:38.080Z,17.40
2023-05-10T13:34:06.863Z,17.42
2023-05-10T13:36:34.627Z,17.51
2023-05-10T13:39:04.918Z,17.44
2023-05-10T13:41:32.913Z,17.52
2023-05-10T13:44:00.911Z,17.48
2023-05-10T13:46:28.800Z,17.46
2023-05-10T13:48:56.422Z,17.53
2023-05-10T13:51:24.578Z,17.53
2023-05-10T13:53:52.117Z,17.57
2023-05-10T13:56:19.937Z,17.54
2023-05-10T13:58:47.483Z,17.51
2023-05-10T14:01:14.987Z,17.51
2023-05-10T14:03:43.243Z,17.43
2023-05-10T14:06:11.106Z,17.42
2023-05-10T14:08:39.060Z,17.45
2023-05-10T14:11:06.683Z,17.49
2023-05-10T14:13:34.072Z,17.53
2023-05-10T14:16:01.929Z,17.52
2023-05-10T14:18:30.085Z,17.57
2023-05-10T14:20:57.930Z,17.53
2023-05-10T14:23:25.848Z,17.54
2023-05-10T14:25:54.483Z,17.52
2023-05-10T14:28:22.133Z,17.53
2023-05-10T14:30:50.060Z,17.46
2023-05-10T14:33:18.693Z,17.48
2023-05-10T14:35:47.646Z,17.51
2023-05-10T14:38:16.013Z,17.52
2023-05-10T14:40:43.965Z,17.43
2023-05-10T14:43:11.844Z,17.40
2023-05-10T14:45:39.558Z,17.37
2023-05-10T14:48:07.448Z,17.32
2023-05-10T14:50:36.475Z,17.38
2023-05-10T14:53:07.070Z,17.43
2023-05-10T14:55:35.738Z,17.43
2023-05-10T14:58:04.376Z,17.43
2023-05-10T15:00:32.038Z,17.43
2023-05-10T15:03:00.509Z,17.44
2023-05-10T15:05:28.321Z,17.45
2023-05-10T15:07:56.100Z,17.35
2023-05-10T15:10:24.043Z,17.26
2023-05-10T15:12:52.492Z,17.32
2023-05-10T15:15:20.296Z,17.39
2023-05-10T15:17:48.210Z,17.33
2023-05-10T15:20:19.450Z,17.19
2023-05-10T15:22:47.820Z,17.14
2023-05-10T15:25:17.373Z,17.06
2023-05-10T15:27:45.469Z,16.93
2023-05-10T15:30:14.817Z,16.88
2023-05-10T15:32:42.311Z,16.88
2023-05-10T15:35:11.312Z,16.95
2023-05-10T15:37:42.197Z,16.88
2023-05-10T15:40:12.233Z,17.03
2023-05-10T15:42:40.198Z,17.01
2023-05-10T15:45:10.684Z,16.96
2023-05-10T15:47:40.566Z,16.97
2023-05-10T15:50:08.493Z,16.91
2023-05-10T15:52:36.131Z,16.91
2023-05-10T15:55:04.655Z,16.85
2023-05-10T15:57:32.947Z,16.82
2023-05-10T16:00:01.124Z,16.79
2023-05-10T16:02:29.075Z,16.71
2023-05-10T16:04:57.024Z,16.70
2023-05-10T16:07:25.339Z,16.73
2023-05-10T16:09:53.195Z,16.73
2023-05-10T16:12:20.857Z,16.72
2023-05-10T16:14:48.085Z,16.71
2023-05-10T16:17:15.862Z,16.76
2023-05-10T16:19:43.714Z,16.60
2023-05-10T16:22:11.281Z,16.54
2023-05-10T16:24:38.415Z,16.59
2023-05-10T16:27:06.859Z,16.52
2023-05-10T16:29:34.723Z,16.67
2023-05-10T16:32:02.555Z,16.68
2023-05-10T16:34:30.548Z,16.66
2023-05-10T16:36:58.493Z,16.73
2023-05-10T16:39:27.876Z,16.73
2023-05-10T16:41:56.282Z,16.80
2023-05-10T16:44:25.935Z,16.82
2023-05-10T16:46:55.028Z,16.80
2023-05-10T16:49:24.490Z,16.77
2023-05-10T16:51:54.069Z,16.74
2023-05-10T16:54:22.138Z,16.67
2023-05-10T16:56:49.638Z,16.70
2023-05-10T16:59:20.713Z,16.68
2023-05-10T17:01:48.363Z,16.63
2023-05-10T17:04:16.573Z,16.67
2023-05-10T17:06:44.231Z,16.62
2023-05-10T17:09:12.329Z,16.62
2023-05-10T17:11:40.194Z,16.57
2023-05-10T17:14:08.088Z,16.57
2023-05-10T17:16:35.856Z,16.55
2023-05-10T17:19:03.544Z,16.54
2023-05-10T17:21:32.107Z,16.54
2023-05-10T17:24:00.200Z,16.52
2023-05-10T17:26:28.161Z,16.54
2023-05-10T17:28:56.139Z,16.54
2023-05-10T17:31:23.652Z,16.53
2023-05-10T17:33:51.296Z,16.45
2023-05-10T17:36:18.897Z,16.43
2023-05-10T17:38:48.412Z,16.45
2023-05-10T17:41:16.251Z,16.53
2023-05-10T17:43:43.580Z,16.56
2023-05-10T17:46:11.404Z,16.55
2023-05-10T17:48:39.451Z,16.53
2023-05-10T17:51:10.830Z,16.51
2023-05-10T17:53:39.497Z,16.45
2023-05-10T17:56:08.333Z,16.45
2023-05-10T17:58:38.386Z,16.44
2023-05-10T18:01:06.781Z,16.39
2023-05-10T18:03:36.052Z,16.35
2023-05-10T18:06:04.533Z,16.34
2023-05-10T18:08:33.284Z,16.35
2023-05-10T18:11:00.996Z,16.31
2023-05-10T18:13:28.710Z,16.36
2023-05-10T18:15:56.277Z,16.36
2023-05-10T18:18:24.148Z,16.40
2023-05-10T18:20:56.570Z,16.39
2023-05-10T18:23:24.706Z,16.38
2023-05-10T18:25:52.042Z,16.38
2023-05-10T18:28:19.209Z,16.56
2023-05-10T18:30:47.413Z,16.47
2023-05-10T18:33:15.368Z,16.43
2023-05-10T18:35:42.991Z,16.34
2023-05-10T18:38:10.120Z,16.28
2023-05-10T18:40:37.884Z,16.25
2023-05-10T18:43:05.696Z,16.21
2023-05-10T18:45:33.610Z,16.19
2023-05-10T18:48:01.520Z,16.16
2023-05-10T18:50:29.361Z,16.12
2023-05-10T18:52:57.313Z,16.15
2023-05-10T18:55:28.431Z,16.17
2023-05-10T18:57:56.543Z,16.19
2023-05-10T19:00:25.020Z,16.15
2023-05-10T19:02:53.699Z,16.04
2023-05-10T19:05:22.100Z,16.00
2023-05-10T19:07:52.596Z,15.98
2023-05-10T19:10:20.788Z,15.95
2023-05-10T19:12:50.966Z,15.99
2023-05-10T19:15:21.703Z,16.04
2023-05-10T19:17:52.335Z,16.06
2023-05-10T19:20:25.281Z,16.00
2023-05-10T19:23:09.088Z,16.05
2023-05-10T19:25:39.271Z,16.05
2023-05-10T19:28:10.073Z,16.01
2023-05-10T19:30:37.834Z,16.02
2023-05-10T19:33:10.302Z,16.08
2023-05-10T19:35:41.195Z,16.09
2023-05-10T19:38:09.320Z,16.05
2023-05-10T19:40:37.454Z,16.11
2023-05-10T19:43:08.596Z,16.24
2023-05-10T19:45:38.967Z,16.12
2023-05-10T19:48:07.358Z,16.12
2023-05-10T19:50:35.353Z,16.12
2023-05-10T19:53:04.228Z,16.08
2023-05-10T19:55:33.884Z,16.10
2023-05-10T19:58:02.524Z,16.17
2023-05-10T20:00:30.397Z,16.28
2023-05-10T20:03:00.412Z,16.30
2023-05-10T20:05:31.399Z,16.34
2023-05-10T20:08:02.238Z,16.34
2023-05-10T20:10:30.307Z,16.29
2023-05-10T20:13:01.096Z,16.24
2023-05-10T20:15:30.065Z,16.17
2023-05-10T20:18:01.816Z,16.19
2023-05-10T20:20:32.139Z,16.20
2023-05-10T20:23:00.730Z,16.16
2023-05-10T20:25:30.994Z,16.12
2023-05-10T20:27:58.617Z,16.08
2023-05-10T20:30:28.628Z,16.02
2023-05-10T20:32:57.867Z,15.99
2023-05-10T20:35:25.975Z,15.96
2023-05-10T20:37:55.267Z,15.92
2023-05-10T20:40:26.381Z,15.91
2023-05-10T20:42:55.123Z,15.80
2023-05-10T20:45:22.891Z,15.86
2023-05-10T20:47:51.471Z,15.86
2023-05-10T20:50:20.462Z,15.85
2023-05-10T20:52:52.882Z,15.90
2023-05-10T20:55:22.669Z,15.78
2023-05-10T20:57:51.450Z,15.75
2023-05-10T21:00:20.094Z,15.76
2023-05-10T21:02:47.754Z,15.78
2023-05-10T21:05:15.334Z,15.76
2023-05-10T21:07:43.180Z,15.75
2023-05-10T21:10:15.514Z,15.77
2023-05-10T21:12:43.235Z,15.74
2023-05-10T21:15:13.063Z,15.59
2023-05-10T21:17:40.799Z,15.42
2023-05-10T21:20:12.384Z,15.43
2023-05-10T21:22:40.197Z,15.40
2023-05-10T21:25:09.866Z,15.31
2023-05-10T21:27:38.677Z,15.30
2023-05-10T21:30:09.696Z,15.30
2023-05-10T21:32:37.189Z,15.24
2023-05-10T21:35:05.816Z,15.20
2023-05-10T21:37:33.725Z,15.21
2023-05-10T21:40:01.426Z,15.13
2023-05-10T21:42:29.224Z,15.09
2023-05-10T21:44:57.018Z,15.02
2023-05-10T21:47:24.619Z,14.95
2023-05-10T21:49:52.181Z,14.90
2023-05-10T21:52:19.828Z,14.85
2023-05-10T21:54:47.498Z,14.85
2023-05-10T21:57:15.177Z,14.80
2023-05-10T21:59:43.082Z,14.77
2023-05-10T22:02:10.955Z,14.69
2023-05-10T22:04:39.031Z,14.60
2023-05-10T22:07:06.455Z,14.67
2023-05-10T22:09:34.348Z,14.67
2023-05-10T22:12:02.189Z,14.69
2023-05-10T22:14:30.106Z,14.77
2023-05-10T22:16:58.126Z,14.77
2023-05-10T22:19:25.928Z,14.82
2023-05-10T22:21:53.301Z,14.80
2023-05-10T22:24:21.506Z,14.80
2023-05-10T22:26:49.374Z,14.79
2023-05-10T22:29:16.916Z,14.80
2023-05-10T22:31:44.915Z,14.78
2023-05-10T22:34:12.662Z,14.84
2023-05-10T22:36:40.530Z,14.80
2023-05-10T22:39:08.347Z,14.80
2023-05-10T22:41:39.084Z,14.72
2023-05-10T22:44:06.896Z,14.74
2023-05-10T22:46:35.283Z,14.72
2023-05-10T22:49:02.579Z,14.66
2023-05-10T22:51:30.469Z,14.64
2023-05-10T22:53:58.269Z,14.64
2023-05-10T22:56:25.258Z,14.69
2023-05-10T22:58:52.739Z,14.72
2023-05-10T23:01:20.196Z,14.82
2023-05-10T23:03:48.007Z,14.90
2023-05-10T23:06:15.407Z,14.99
2023-05-10T23:08:43.288Z,14.91
2023-05-10T23:11:11.049Z,14.85
2023-05-10T23:13:38.536Z,14.78
2023-05-10T23:16:06.659Z,14.74
2023-05-10T23:18:34.577Z,14.70
2023-05-10T23:21:02.989Z,14.66
2023-05-10T23:23:31.053Z,14.60
2023-05-10T23:25:59.243Z,14.52
2023-05-10T23:28:26.793Z,14.59
2023-05-10T23:30:57.978Z,14.59
2023-05-10T23:33:26.003Z,14.65
2023-05-10T23:35:55.212Z,14.70
2023-05-10T23:38:23.221Z,14.74
2023-05-10T23:40:50.542Z,14.83
2023-05-10T23:43:20.102Z,14.83
2023-05-10T23:45:57.391Z,14.82
2023-05-10T23:48:25.143Z,14.88
2023-05-10T23:50:53.403Z,14.99
2023-05-10T23:53:23.503Z,14.96
2023-05-10T23:55:51.315Z,14.99
2023-05-10T23:58:18.747Z,15.03
